Time;durP1;ratioP1;P1;durP2;ratioP2;P2;SDS_P1;SDS_P2;PMS_P1;PMS_P2;Temp;Humidity;BMP_temperature;BMP_pressure;BME280_temperature;BME280_humidity;BME280_pressure;Samples;Min_cycle;Max_cycle;Signal;HPM_P1;HPM_P2
2022/02/16 00:02:11;;;;;;;;;;;;;;;;;;5062896;28;19912;-46
2022/02/16 00:04:37;;;;;;;;;;;;;;;;;;5089016;28;19912;-51
2022/02/16 00:07:04;;;;;;;;;;;;;;;;;;5077133;28;19909;-58
2022/02/16 00:09:30;;;;;;;;;;;;;;;;;;5075781;28;20363;-60
2022/02/16 00:11:57;;;;;;;;;;;;;;;;;;5074823;28;19909;-56
2022/02/16 00:14:23;;;;;;;;;;;;;;;;;;5075191;28;19920;-58
2022/02/16 00:16:50;;;;;;;;;;;;;;;;;;5085918;28;19920;-55
2022/02/16 00:19:26;;;;;;;;;;;;;;;;;;5096282;28;19913;-47
2022/02/16 00:21:53;;;;;;;;;;;;;;;;;;5096286;28;19908;-47
2022/02/16 00:24:20;;;;;;;;;;;;;;;;;;5096363;28;19904;-52
2022/02/16 00:26:50;;;;;;;;;;;;;;;;;;5094963;28;19999;-48
2022/02/16 00:29:17;;;;;;;;;;;;;;;;;;5095454;28;19908;-59
2022/02/16 00:31:47;;;;;;;;;;;;;;;;;;5096475;28;19904;-48
2022/02/16 00:34:13;;;;;;;;;;;;;;;;;;5095111;28;19916;-54
2022/02/16 00:36:40;;;;;;;;;;;;;;;;;;5096023;28;19943;-56
2022/02/16 00:39:06;;;;;;;;;;;;;;;;;;5096124;28;19908;-58
2022/02/16 00:41:42;;;;;;;;;;;;;;;;;;5095921;28;19951;-59
2022/02/16 00:44:12;;;;;;;;;;;;;;;;;;5096207;28;19919;-54
2022/02/16 00:46:39;;;;;;;;;;;;;;;;;;5090206;28;19920;-54
2022/02/16 00:49:06;;;;;;;;;;;;;;;;;;5093527;28;19908;-55
2022/02/16 00:51:32;;;;;;;;;;;;;;;;;;5092445;28;20355;-56
2022/02/16 00:53:59;;;;;;;;;;;;;;;;;;5094440;28;19926;-54
2022/02/16 00:56:25;;;;;;;;;;;;;;;;;;5089779;28;19908;-58
2022/02/16 00:58:52;;;;;;;;;;;;;;;;;;5091595;28;19912;-58
2022/02/16 01:01:18;;;;;;;;;;;;;;;;;;5091406;28;19916;-55
2022/02/16 01:03:44;;;;;;;;;;;;;;;;;;5092842;28;19915;-55
2022/02/16 01:06:12;;;;;;;;;;;;;;;;;;5090841;28;20087;-50
2022/02/16 01:08:39;;;;;;;;;;;;;;;;;;5092007;28;19916;-52
2022/02/16 01:11:05;;;;;;;;;;;;;;;;;;5092167;28;20282;-57
2022/02/16 01:13:32;;;;;;;;;;;;;;;;;;5092176;28;20050;-56
2022/02/16 01:15:59;;;;;;;;;;;;;;;;;;5081758;28;19924;-57
2022/02/16 01:18:26;;;;;;;;;;;;;;;;;;5073641;28;19932;-53
2022/02/16 01:20:52;;;;;;;;;;;;;;;;;;5053043;28;19916;-56
2022/02/16 01:23:19;;;;;;;;;;;;;;;;;;5073824;28;20017;-53
2022/02/16 01:25:45;;;;;;;;;;;;;;;;;;5074705;28;19908;-56
2022/02/16 01:28:12;;;;;;;;;;;;;;;;;;5068343;28;20038;-57
2022/02/16 01:30:38;;;;;;;;;;;;;;;;;;5071529;28;20002;-55
2022/02/16 01:33:05;;;;;;;;;;;;;;;;;;5071725;28;19908;-50
2022/02/16 01:35:31;;;;;;;;;;;;;;;;;;5071988;28;19948;-59
2022/02/16 01:37:58;;;;;;;;;;;;;;;;;;5052397;28;19966;-54
2022/02/16 01:40:24;;;;;;;;;;;;;;;;;;5075041;28;19916;-56
2022/02/16 01:42:54;;;;;;;;;;;;;;;;;;5071412;28;19908;-57
2022/02/16 01:45:20;;;;;;;;;;;;;;;;;;5072545;28;19916;-55
2022/02/16 01:47:47;;;;;;;;;;;;;;;;;;5068339;28;20224;-51
2022/02/16 01:50:16;;;;;;;;;;;;;;;;;;5073696;28;20464;-49
2022/02/16 01:52:42;;;;;;;;;;;;;;;;;;5074781;28;19908;-58
2022/02/16 01:55:09;;;;;;;;;;;;;;;;;;5053522;28;20231;-50
2022/02/16 01:57:35;;;;;;;;;;;;;;;;;;5067908;28;19962;-51
2022/02/16 02:00:02;;;;;;;;;;;;;;;;;;5070547;28;19924;-49
2022/02/16 02:02:28;;;;;;;;;;;;;;;;;;5073414;28;19957;-56
2022/02/16 02:04:55;;;;;;;;;;;;;;;;;;5073802;28;20363;-54
2022/02/16 02:07:22;;;;;;;;;;;;;;;;;;5073152;28;19933;-55
2022/02/16 02:09:48;;;;;;;;;;;;;;;;;;5074062;28;19950;-59
2022/02/16 02:12:15;;;;;;;;;;;;;;;;;;5074228;28;20461;-60
2022/02/16 02:14:41;;;;;;;;;;;;;;;;;;5064699;28;20042;-55
2022/02/16 02:17:08;;;;;;;;;;;;;;;;;;5087712;28;19991;-50
2022/02/16 02:19:34;;;;;;;;;;;;;;;;;;5090571;28;19922;-59
2022/02/16 02:22:00;;;;;;;;;;;;;;;;;;5092427;28;19941;-54
2022/02/16 02:24:27;;;;;;;;;;;;;;;;;;5088950;28;19908;-55
2022/02/16 02:26:53;;;;;;;;;;;;;;;;;;5089000;28;19958;-50
2022/02/16 02:29:20;;;;;;;;;;;;;;;;;;5090498;28;19947;-53
2022/02/16 02:31:46;;;;;;;;;;;;;;;;;;5090769;28;19908;-56
2022/02/16 02:34:13;;;;;;;;;;;;;;;;;;5086447;28;20351;-54
2022/02/16 02:36:39;;;;;;;;;;;;;;;;;;5089763;28;21059;-55
2022/02/16 02:39:06;;;;;;;;;;;;;;;;;;5090345;28;19981;-55
2022/02/16 02:41:32;;;;;;;;;;;;;;;;;;5092297;28;20002;-58
2022/02/16 02:43:59;;;;;;;;;;;;;;;;;;5092995;28;20394;-56
2022/02/16 02:46:25;;;;;;;;;;;;;;;;;;5093289;28;19909;-58
2022/02/16 02:48:52;;;;;;;;;;;;;;;;;;5093099;28;20335;-53
2022/02/16 02:51:18;;;;;;;;;;;;;;;;;;5093545;28;19956;-56
2022/02/16 02:53:45;;;;;;;;;;;;;;;;;;5093026;28;19918;-56
2022/02/16 02:56:14;;;;;;;;;;;;;;;;;;5102304;28;19977;-59
2022/02/16 02:58:41;;;;;;;;;;;;;;;;;;5112274;28;20017;-61
2022/02/16 03:01:07;;;;;;;;;;;;;;;;;;5111937;28;19908;-62
2022/02/16 03:03:35;;;;;;;;;;;;;;;;;;5113758;28;19908;-56
2022/02/16 03:06:02;;;;;;;;;;;;;;;;;;5089874;28;19923;-53
2022/02/16 03:08:29;;;;;;;;;;;;;;;;;;5089614;28;19916;-51
2022/02/16 03:10:55;;;;;;;;;;;;;;;;;;5090524;28;19922;-55
2022/02/16 03:13:22;;;;;;;;;;;;;;;;;;5089792;28;19915;-54
2022/02/16 03:15:51;;;;;;;;;;;;;;;;;;5087986;28;19938;-56
2022/02/16 03:18:20;;;;;;;;;;;;;;;;;;5084019;28;19934;-51
2022/02/16 03:20:46;;;;;;;;;;;;;;;;;;5093082;28;19914;-53
2022/02/16 03:23:13;;;;;;;;;;;;;;;;;;5088666;28;19953;-52
2022/02/16 03:25:39;;;;;;;;;;;;;;;;;;5095679;28;19908;-56
2022/02/16 03:28:06;;;;;;;;;;;;;;;;;;5091615;28;19968;-48
2022/02/16 03:30:32;;;;;;;;;;;;;;;;;;5089933;28;19909;-49
2022/02/16 03:32:59;;;;;;;;;;;;;;;;;;5092960;28;20366;-53
2022/02/16 03:35:25;;;;;;;;;;;;;;;;;;5092173;28;19924;-53
2022/02/16 03:37:53;;;;;;;;;;;;;;;;;;5083998;28;19959;-55
2022/02/16 03:40:20;;;;;;;;;;;;;;;;;;5090646;28;19962;-57
2022/02/16 03:42:46;;;;;;;;;;;;;;;;;;5073644;28;20277;-60
2022/02/16 03:45:13;;;;;;;;;;;;;;;;;;5083942;28;19916;-50
2022/02/16 03:47:39;;;;;;;;;;;;;;;;;;5086833;28;19916;-50
2022/02/16 03:50:06;;;;;;;;;;;;;;;;;;5091479;28;19908;-57
2022/02/16 03:52:32;;;;;;;;;;;;;;;;;;5092559;28;20376;-51
2022/02/16 03:54:59;;;;;;;;;;;;;;;;;;5072750;28;19938;-57
2022/02/16 03:57:25;;;;;;;;;;;;;;;;;;5090675;28;19986;-55
2022/02/16 03:59:52;;;;;;;;;;;;;;;;;;5090014;28;20034;-55
2022/02/16 04:02:18;;;;;;;;;;;;;;;;;;5092726;28;19919;-56
2022/02/16 04:04:45;;;;;;;;;;;;;;;;;;5091126;28;20346;-56
2022/02/16 04:07:14;;;;;;;;;;;;;;;;;;5071392;28;19916;-55
2022/02/16 04:09:41;;;;;;;;;;;;;;;;;;5084371;28;19908;-57
2022/02/16 04:12:07;;;;;;;;;;;;;;;;;;5090948;28;20281;-59
2022/02/16 04:14:34;;;;;;;;;;;;;;;;;;5091131;28;19916;-55
2022/02/16 04:17:00;;;;;;;;;;;;;;;;;;5089285;28;20023;-52
2022/02/16 04:19:27;;;;;;;;;;;;;;;;;;5085678;28;19914;-55
2022/02/16 04:21:54;;;;;;;;;;;;;;;;;;5095925;28;20320;-59
2022/02/16 04:24:20;;;;;;;;;;;;;;;;;;5099361;28;20377;-57
2022/02/16 04:26:46;;;;;;;;;;;;;;;;;;5099038;28;19970;-53
2022/02/16 04:29:13;;;;;;;;;;;;;;;;;;5098523;28;19912;-54
2022/02/16 04:31:40;;;;;;;;;;;;;;;;;;5096218;28;19912;-57
2022/02/16 04:34:07;;;;;;;;;;;;;;;;;;5095732;28;20371;-54
2022/02/16 04:36:33;;;;;;;;;;;;;;;;;;5095652;28;19954;-54
2022/02/16 04:39:00;;;;;;;;;;;;;;;;;;5095818;28;19915;-55
2022/02/16 04:41:26;;;;;;;;;;;;;;;;;;5095547;28;19908;-55
2022/02/16 04:43:53;;;;;;;;;;;;;;;;;;5095818;28;19908;-54
2022/02/16 04:46:19;;;;;;;;;;;;;;;;;;5077488;28;19915;-53
2022/02/16 04:48:46;;;;;;;;;;;;;;;;;;5094129;28;19908;-50
2022/02/16 04:51:12;;;;;;;;;;;;;;;;;;5095084;28;19908;-56
2022/02/16 04:53:39;;;;;;;;;;;;;;;;;;5095359;28;19916;-56
2022/02/16 04:56:06;;;;;;;;;;;;;;;;;;5095378;28;19908;-54
2022/02/16 04:58:32;;;;;;;;;;;;;;;;;;5095159;28;19908;-48
2022/02/16 05:00:58;;;;;;;;;;;;;;;;;;5095225;28;19923;-51
2022/02/16 05:03:25;;;;;;;;;;;;;;;;;;5095181;28;20003;-58
2022/02/16 05:05:51;;;;;;;;;;;;;;;;;;5077482;28;19908;-52
2022/02/16 05:08:18;;;;;;;;;;;;;;;;;;5095293;28;20296;-56
2022/02/16 05:10:45;;;;;;;;;;;;;;;;;;5094710;28;19915;-54
2022/02/16 05:13:11;;;;;;;;;;;;;;;;;;5077188;28;20393;-57
2022/02/16 05:15:38;;;;;;;;;;;;;;;;;;5094914;28;19927;-59
2022/02/16 05:18:04;;;;;;;;;;;;;;;;;;5095428;28;20368;-55
2022/02/16 05:20:31;;;;;;;;;;;;;;;;;;5094522;28;19908;-57
2022/02/16 05:22:57;;;;;;;;;;;;;;;;;;5095091;28;20342;-55
2022/02/16 05:25:24;;;;;;;;;;;;;;;;;;5077235;28;19916;-58
2022/02/16 05:27:50;;;;;;;;;;;;;;;;;;5081569;28;19991;-59
2022/02/16 05:30:17;;;;;;;;;;;;;;;;;;5085598;28;19916;-62
2022/02/16 05:32:43;;;;;;;;;;;;;;;;;;5089383;28;20034;-56
2022/02/16 05:35:10;;;;;;;;;;;;;;;;;;5084752;28;19923;-63
2022/02/16 05:37:37;;;;;;;;;;;;;;;;;;5087047;28;19962;-55
2022/02/16 05:40:04;;;;;;;;;;;;;;;;;;5085322;28;20355;-57
2022/02/16 05:42:37;;;;;;;;;;;;;;;;;;5084480;28;19912;-55
2022/02/16 05:45:17;;;;;;;;;;;;;;;;;;5093168;28;19908;-59
2022/02/16 05:47:44;;;;;;;;;;;;;;;;;;5093886;28;19915;-60
2022/02/16 05:50:11;;;;;;;;;;;;;;;;;;5083243;28;19912;-62
2022/02/16 05:52:37;;;;;;;;;;;;;;;;;;5074517;28;19909;-58
2022/02/16 05:55:04;;;;;;;;;;;;;;;;;;5074759;28;20367;-62
2022/02/16 05:57:32;;;;;;;;;;;;;;;;;;5074134;28;19916;-64
2022/02/16 05:59:59;;;;;;;;;;;;;;;;;;5057022;28;20275;-61
2022/02/16 06:02:28;;;;;;;;;;;;;;;;;;5056688;28;19944;-55
2022/02/16 06:04:55;;;;;;;;;;;;;;;;;;5056559;28;19909;-63
2022/02/16 06:07:22;;;;;;;;;;;;;;;;;;5074829;28;20279;-61
2022/02/16 06:09:48;;;;;;;;;;;;;;;;;;5073562;28;19999;-64
2022/02/16 06:12:15;;;;;;;;;;;;;;;;;;5074573;28;19916;-61
2022/02/16 06:14:41;;;;;;;;;;;;;;;;;;5073490;28;19916;-63
2022/02/16 06:17:08;;;;;;;;;;;;;;;;;;5090408;28;19958;-66
2022/02/16 06:19:35;;;;;;;;;;;;;;;;;;5094615;28;19908;-57
2022/02/16 06:22:01;;;;;;;;;;;;;;;;;;5094611;28;19908;-60
2022/02/16 06:24:28;;;;;;;;;;;;;;;;;;5094440;28;20139;-65
2022/02/16 06:26:55;;;;;;;;;;;;;;;;;;5094493;28;19912;-65
2022/02/16 06:29:21;;;;;;;;;;;;;;;;;;5093903;28;19911;-63
2022/02/16 06:31:48;;;;;;;;;;;;;;;;;;5093137;28;20255;-60
2022/02/16 06:34:18;;;;;;;;;;;;;;;;;;5094170;28;19960;-64
2022/02/16 06:36:44;;;;;;;;;;;;;;;;;;5093730;28;19908;-63
2022/02/16 06:39:11;;;;;;;;;;;;;;;;;;5094475;28;19915;-62
2022/02/16 06:41:37;;;;;;;;;;;;;;;;;;5094015;28;19908;-65
2022/02/16 06:44:04;;;;;;;;;;;;;;;;;;5093871;28;20003;-61
2022/02/16 06:46:30;;;;;;;;;;;;;;;;;;5093613;28;19931;-67
2022/02/16 06:48:57;;;;;;;;;;;;;;;;;;5092879;28;20422;-64
2022/02/16 06:51:23;;;;;;;;;;;;;;;;;;5094262;28;20374;-68
2022/02/16 06:53:55;;;;;;;;;;;;;;;;;;5093910;28;19912;-60
2022/02/16 06:56:22;;;;;;;;;;;;;;;;;;5093370;28;20313;-59
2022/02/16 06:58:49;;;;;;;;;;;;;;;;;;5093762;28;19912;-60
2022/02/16 07:01:15;;;;;;;;;;;;;;;;;;5092252;28;19912;-69
2022/02/16 07:03:42;;;;;;;;;;;;;;;;;;5092498;28;19908;-59
2022/02/16 07:06:08;;;;;;;;;;;;;;;;;;5093408;28;19916;-61
2022/02/16 07:08:35;;;;;;;;;;;;;;;;;;5093490;28;19912;-66
2022/02/16 07:11:02;;;;;;;;;;;;;;;;;;5093337;28;20037;-62
2022/02/16 07:13:28;;;;;;;;;;;;;;;;;;5092923;28;19919;-59
2022/02/16 07:15:55;;;;;;;;;;;;;;;;;;5093627;28;19920;-59
2022/02/16 07:18:21;;;;;;;;;;;;;;;;;;5092114;28;20250;-53
2022/02/16 07:20:48;;;;;;;;;;;;;;;;;;5093173;28;19965;-58
2022/02/16 07:23:15;;;;;;;;;;;;;;;;;;5093621;28;19912;-62
2022/02/16 07:25:41;;;;;;;;;;;;;;;;;;5093696;28;19909;-68
2022/02/16 07:28:10;;;;;;;;;;;;;;;;;;5093916;28;19912;-60
2022/02/16 07:30:36;;;;;;;;;;;;;;;;;;5093372;28;20010;-60
2022/02/16 07:33:06;;;;;;;;;;;;;;;;;;5093524;28;20270;-63
2022/02/16 07:35:33;;;;;;;;;;;;;;;;;;5093282;28;19916;-58
2022/02/16 07:37:59;;;;;;;;;;;;;;;;;;5093470;28;19908;-60
2022/02/16 07:40:26;;;;;;;;;;;;;;;;;;5093369;28;20256;-63
2022/02/16 07:42:52;;;;;;;;;;;;;;;;;;5093081;28;19908;-61
2022/02/16 07:45:20;;;;;;;;;;;;;;;;;;5092449;28;19951;-59
2022/02/16 07:47:47;;;;;;;;;;;;;;;;;;5092924;28;19908;-61
2022/02/16 07:50:13;;;;;;;;;;;;;;;;;;5093399;28;19908;-52
2022/02/16 07:52:40;;;;;;;;;;;;;;;;;;5091384;28;19908;-64
2022/02/16 07:55:06;;;;;;;;;;;;;;;;;;5093246;28;19916;-63
2022/02/16 07:57:33;;;;;;;;;;;;;;;;;;5093739;28;19916;-63
2022/02/16 07:59:59;;;;;;;;;;;;;;;;;;5093612;28;19908;-65
2022/02/16 08:02:26;;;;;;;;;;;;;;;;;;5093063;28;19908;-61
2022/02/16 08:04:55;;;;;;;;;;;;;;;;;;5093174;28;19977;-63
2022/02/16 08:07:22;;;;;;;;;;;;;;;;;;5097225;28;19915;-65
2022/02/16 08:09:48;;;;;;;;;;;;;;;;;;5095562;28;19961;-67
2022/02/16 08:12:15;;;;;;;;;;;;;;;;;;5097317;28;19908;-53
2022/02/16 08:14:42;;;;;;;;;;;;;;;;;;5097032;28;20413;-59
2022/02/16 08:17:08;;;;;;;;;;;;;;;;;;5094972;28;19931;-63
2022/02/16 08:19:39;;;;;;;;;;;;;;;;;;5096742;28;19912;-56
2022/02/16 08:22:18;;;;;;;;;;;;;;;;;;5096631;28;19916;-54
2022/02/16 08:24:45;;;;;;;;;;;;;;;;;;5095270;28;19938;-67
2022/02/16 08:27:14;;;;;;;;;;;;;;;;;;5096373;28;20002;-63
2022/02/16 08:29:41;;;;;;;;;;;;;;;;;;5096662;28;19908;-63
2022/02/16 08:32:07;;;;;;;;;;;;;;;;;;5096572;28;20388;-60
2022/02/16 08:34:33;;;;;;;;;;;;;;;;;;5096201;28;19916;-60
2022/02/16 08:37:00;;;;;;;;;;;;;;;;;;5096547;28;19914;-63
2022/02/16 08:39:26;;;;;;;;;;;;;;;;;;5096915;28;19909;-62
2022/02/16 08:41:53;;;;;;;;;;;;;;;;;;5095282;28;19952;-67
2022/02/16 08:44:20;;;;;;;;;;;;;;;;;;5093888;28;19912;-60
2022/02/16 08:46:46;;;;;;;;;;;;;;;;;;5095765;28;19998;-63
2022/02/16 08:49:13;;;;;;;;;;;;;;;;;;5096560;28;19943;-59
2022/02/16 08:51:39;;;;;;;;;;;;;;;;;;5096318;28;19915;-60
2022/02/16 08:54:06;;;;;;;;;;;;;;;;;;5095855;28;19923;-64
2022/02/16 08:56:32;;;;;;;;;;;;;;;;;;5094147;28;19908;-58
2022/02/16 08:59:00;;;;;;;;;;;;;;;;;;5095215;28;19912;-62
2022/02/16 09:01:31;;;;;;;;;;;;;;;;;;5090611;28;19912;-49
2022/02/16 09:03:58;;;;;;;;;;;;;;;;;;5089504;28;19957;-59
2022/02/16 09:06:24;;;;;;;;;;;;;;;;;;5092700;28;19916;-54
2022/02/16 09:08:51;;;;;;;;;;;;;;;;;;5088786;28;19912;-62
2022/02/16 09:11:18;;;;;;;;;;;;;;;;;;5087358;28;20367;-58
2022/02/16 09:13:44;;;;;;;;;;;;;;;;;;5090623;28;20282;-59
2022/02/16 09:16:11;;;;;;;;;;;;;;;;;;5089389;28;19920;-60
2022/02/16 09:18:37;;;;;;;;;;;;;;;;;;5081488;28;19938;-53
2022/02/16 09:21:05;;;;;;;;;;;;;;;;;;5083796;28;19914;-53
2022/02/16 09:23:32;;;;;;;;;;;;;;;;;;5082239;28;19953;-56
2022/02/16 09:25:59;;;;;;;;;;;;;;;;;;5085387;28;19983;-56
2022/02/16 09:28:26;;;;;;;;;;;;;;;;;;5083538;28;20343;-53
2022/02/16 09:30:52;;;;;;;;;;;;;;;;;;5086435;28;20259;-56
2022/02/16 09:33:18;;;;;;;;;;;;;;;;;;5082159;28;19923;-56
2022/02/16 09:35:45;;;;;;;;;;;;;;;;;;5084799;28;19955;-55
2022/02/16 09:38:13;;;;;;;;;;;;;;;;;;5082048;28;20282;-52
2022/02/16 09:40:40;;;;;;;;;;;;;;;;;;5086409;28;19931;-56
2022/02/16 09:43:09;;;;;;;;;;;;;;;;;;5086595;28;19915;-57
2022/02/16 09:45:36;;;;;;;;;;;;;;;;;;5087838;28;19908;-63
2022/02/16 09:48:02;;;;;;;;;;;;;;;;;;5080822;28;19962;-55
2022/02/16 09:50:29;;;;;;;;;;;;;;;;;;5087558;28;20375;-58
2022/02/16 09:52:55;;;;;;;;;;;;;;;;;;5089657;28;20014;-49
2022/02/16 09:55:22;;;;;;;;;;;;;;;;;;5088382;28;19924;-53
2022/02/16 09:57:48;;;;;;;;;;;;;;;;;;5082778;28;20011;-51
2022/02/16 10:00:15;;;;;;;;;;;;;;;;;;5087725;28;19915;-55
2022/02/16 10:02:43;;;;;;;;;;;;;;;;;;5085345;28;19908;-54
2022/02/16 10:05:09;;;;;;;;;;;;;;;;;;5084143;28;20316;-51
2022/02/16 10:07:38;;;;;;;;;;;;;;;;;;5081412;28;19908;-54
2022/02/16 10:10:05;;;;;;;;;;;;;;;;;;5088148;28;19908;-51
2022/02/16 10:12:32;;;;;;;;;;;;;;;;;;5087147;28;19934;-55
2022/02/16 10:14:58;;;;;;;;;;;;;;;;;;5086606;28;19965;-52
2022/02/16 10:17:25;;;;;;;;;;;;;;;;;;5081614;28;19928;-52
2022/02/16 10:19:51;;;;;;;;;;;;;;;;;;5088524;28;19915;-54
2022/02/16 10:22:19;;;;;;;;;;;;;;;;;;5087149;28;19908;-54
2022/02/16 10:24:45;;;;;;;;;;;;;;;;;;5086243;28;19908;-52
2022/02/16 10:27:12;;;;;;;;;;;;;;;;;;5083396;28;19908;-56
2022/02/16 10:29:38;;;;;;;;;;;;;;;;;;5082603;28;19912;-54
2022/02/16 10:32:05;;;;;;;;;;;;;;;;;;5084297;28;19916;-51
2022/02/16 10:34:32;;;;;;;;;;;;;;;;;;5085174;28;19935;-50
2022/02/16 10:36:58;;;;;;;;;;;;;;;;;;5079609;28;19969;-47
2022/02/16 10:39:26;;;;;;;;;;;;;;;;;;5087606;28;19916;-50
2022/02/16 10:41:58;;;;;;;;;;;;;;;;;;5067733;28;19953;-54
2022/02/16 10:44:24;;;;;;;;;;;;;;;;;;5085415;28;19934;-58
2022/02/16 10:46:51;;;;;;;;;;;;;;;;;;5079624;28;19916;-57
2022/02/16 10:49:17;;;;;;;;;;;;;;;;;;5074810;28;19908;-53
2022/02/16 10:51:44;;;;;;;;;;;;;;;;;;5081436;28;19916;-51
2022/02/16 10:54:10;;;;;;;;;;;;;;;;;;5086439;28;19920;-59
2022/02/16 10:56:38;;;;;;;;;;;;;;;;;;5085193;28;19908;-51
2022/02/16 10:59:04;;;;;;;;;;;;;;;;;;5083956;28;19908;-51
2022/02/16 11:01:34;;;;;;;;;;;;;;;;;;5083020;28;19908;-52
2022/02/16 11:04:00;;;;;;;;;;;;;;;;;;5087813;28;19912;-56
2022/02/16 11:06:27;;;;;;;;;;;;;;;;;;5083964;28;19916;-54
2022/02/16 11:08:54;;;;;;;;;;;;;;;;;;5081183;28;20026;-57
2022/02/16 11:11:21;;;;;;;;;;;;;;;;;;5086445;28;19908;-57
2022/02/16 11:13:47;;;;;;;;;;;;;;;;;;5087661;28;19969;-58
2022/02/16 11:16:14;;;;;;;;;;;;;;;;;;5083823;28;19920;-56
2022/02/16 11:18:40;;;;;;;;;;;;;;;;;;5081461;28;19915;-59
2022/02/16 11:21:07;;;;;;;;;;;;;;;;;;5086294;28;20371;-53
2022/02/16 11:23:33;;;;;;;;;;;;;;;;;;5068875;28;19908;-53
2022/02/16 11:26:00;;;;;;;;;;;;;;;;;;5087595;28;20283;-60
2022/02/16 11:28:26;;;;;;;;;;;;;;;;;;5078821;28;19908;-56
2022/02/16 11:30:53;;;;;;;;;;;;;;;;;;5083116;28;19908;-56
2022/02/16 11:33:19;;;;;;;;;;;;;;;;;;5085813;28;19966;-55
2022/02/16 11:35:46;;;;;;;;;;;;;;;;;;5087129;28;20375;-54
2022/02/16 11:38:12;;;;;;;;;;;;;;;;;;5081839;28;19915;-57
2022/02/16 11:40:39;;;;;;;;;;;;;;;;;;5087007;28;19965;-59
2022/02/16 11:43:05;;;;;;;;;;;;;;;;;;5089197;28;19999;-58
2022/02/16 11:45:32;;;;;;;;;;;;;;;;;;5088581;28;19908;-60
2022/02/16 11:47:58;;;;;;;;;;;;;;;;;;5084627;28;19957;-55
2022/02/16 11:50:25;;;;;;;;;;;;;;;;;;5089443;28;19915;-56
2022/02/16 11:52:51;;;;;;;;;;;;;;;;;;5085612;28;19913;-59
2022/02/16 11:55:18;;;;;;;;;;;;;;;;;;5090445;28;20355;-51
2022/02/16 11:57:44;;;;;;;;;;;;;;;;;;5081322;28;20308;-53
2022/02/16 12:00:13;;;;;;;;;;;;;;;;;;5086186;28;19950;-58
2022/02/16 12:02:39;;;;;;;;;;;;;;;;;;5088263;28;19931;-52
2022/02/16 12:05:06;;;;;;;;;;;;;;;;;;5091366;28;20280;-52
2022/02/16 12:07:33;;;;;;;;;;;;;;;;;;5086204;28;20428;-55
2022/02/16 12:09:59;;;;;;;;;;;;;;;;;;5088990;28;20500;-54
2022/02/16 12:12:26;;;;;;;;;;;;;;;;;;5096781;28;19934;-60
2022/02/16 12:14:52;;;;;;;;;;;;;;;;;;5096558;28;19923;-57
2022/02/16 12:17:19;;;;;;;;;;;;;;;;;;5090800;28;19924;-63
2022/02/16 12:19:45;;;;;;;;;;;;;;;;;;5096917;28;19931;-56
2022/02/16 12:22:12;;;;;;;;;;;;;;;;;;5096759;28;19904;-65
2022/02/16 12:24:42;;;;;;;;;;;;;;;;;;5096128;28;20297;-58
2022/02/16 12:27:09;;;;;;;;;;;;;;;;;;5096584;28;20007;-58
2022/02/16 12:29:39;;;;;;;;;;;;;;;;;;5096614;28;20386;-58
2022/02/16 12:32:05;;;;;;;;;;;;;;;;;;5096273;28;19915;-55
2022/02/16 12:34:32;;;;;;;;;;;;;;;;;;5096466;28;19961;-58
2022/02/16 12:36:58;;;;;;;;;;;;;;;;;;5095272;28;19916;-57
2022/02/16 12:39:25;;;;;;;;;;;;;;;;;;5095778;28;19908;-55
2022/02/16 12:41:51;;;;;;;;;;;;;;;;;;5096611;28;20019;-60
2022/02/16 12:44:18;;;;;;;;;;;;;;;;;;5096376;28;19908;-56
2022/02/16 12:46:45;;;;;;;;;;;;;;;;;;5095430;28;19908;-58
2022/02/16 12:49:11;;;;;;;;;;;;;;;;;;5095944;28;19961;-59
2022/02/16 12:51:38;;;;;;;;;;;;;;;;;;5096178;28;20347;-55
2022/02/16 12:54:04;;;;;;;;;;;;;;;;;;5094744;28;19935;-56
2022/02/16 12:56:31;;;;;;;;;;;;;;;;;;5096136;28;20385;-57
2022/02/16 12:58:57;;;;;;;;;;;;;;;;;;5096298;28;19964;-58
2022/02/16 13:01:26;;;;;;;;;;;;;;;;;;5096269;28;20309;-58
2022/02/16 13:03:56;;;;;;;;;;;;;;;;;;5096515;28;19950;-59
2022/02/16 13:06:22;;;;;;;;;;;;;;;;;;5096067;28;19931;-57
2022/02/16 13:08:49;;;;;;;;;;;;;;;;;;5095851;28;19916;-59
2022/02/16 13:11:15;;;;;;;;;;;;;;;;;;5095686;28;19940;-62
2022/02/16 13:13:42;;;;;;;;;;;;;;;;;;5092976;28;20260;-51
2022/02/16 13:16:08;;;;;;;;;;;;;;;;;;5093636;28;19923;-54
2022/02/16 13:18:35;;;;;;;;;;;;;;;;;;5092608;28;20007;-55
2022/02/16 13:21:01;;;;;;;;;;;;;;;;;;5091637;28;20265;-58
2022/02/16 13:23:28;;;;;;;;;;;;;;;;;;5092569;28;19916;-53
2022/02/16 13:25:56;;;;;;;;;;;;;;;;;;5091655;28;19915;-55
2022/02/16 13:28:22;;;;;;;;;;;;;;;;;;5092573;28;19933;-55
2022/02/16 13:30:52;;;;;;;;;;;;;;;;;;5090267;28;19924;-56
2022/02/16 13:33:21;;;;;;;;;;;;;;;;;;5093787;28;19912;-57
2022/02/16 13:35:48;;;;;;;;;;;;;;;;;;5091700;28;19924;-52
2022/02/16 13:38:14;;;;;;;;;;;;;;;;;;5092074;28;19916;-58
2022/02/16 13:40:41;;;;;;;;;;;;;;;;;;5089764;28;19912;-57
2022/02/16 13:43:07;;;;;;;;;;;;;;;;;;5091575;28;19908;-59
2022/02/16 13:45:34;;;;;;;;;;;;;;;;;;5091977;28;19916;-55
2022/02/16 13:48:00;;;;;;;;;;;;;;;;;;5091627;28;19919;-56
2022/02/16 13:50:28;;;;;;;;;;;;;;;;;;5089162;28;19961;-58
2022/02/16 13:52:54;;;;;;;;;;;;;;;;;;5091090;28;20335;-58
2022/02/16 13:55:21;;;;;;;;;;;;;;;;;;5091654;28;19922;-54
2022/02/16 13:57:47;;;;;;;;;;;;;;;;;;5091745;28;20003;-60
2022/02/16 14:00:14;;;;;;;;;;;;;;;;;;5088824;28;19916;-58
2022/02/16 14:02:41;;;;;;;;;;;;;;;;;;5090955;28;20786;-56
2022/02/16 14:05:07;;;;;;;;;;;;;;;;;;5091567;28;20020;-54
2022/02/16 14:07:35;;;;;;;;;;;;;;;;;;5091803;28;19995;-58
2022/02/16 14:10:01;;;;;;;;;;;;;;;;;;5088012;28;19969;-56
2022/02/16 14:12:29;;;;;;;;;;;;;;;;;;5091224;28;20325;-58
2022/02/16 14:14:56;;;;;;;;;;;;;;;;;;5091407;28;19931;-57
2022/02/16 14:17:22;;;;;;;;;;;;;;;;;;5091280;28;19920;-60
2022/02/16 14:19:49;;;;;;;;;;;;;;;;;;5089741;28;19912;-53
2022/02/16 14:22:15;;;;;;;;;;;;;;;;;;5090094;28;19995;-54
2022/02/16 14:24:42;;;;;;;;;;;;;;;;;;5091566;28;19951;-50
2022/02/16 14:27:10;;;;;;;;;;;;;;;;;;5091371;28;19999;-53
2022/02/16 14:29:36;;;;;;;;;;;;;;;;;;5091830;28;20391;-56
2022/02/16 14:32:04;;;;;;;;;;;;;;;;;;5087460;28;19912;-57
2022/02/16 14:34:31;;;;;;;;;;;;;;;;;;5091529;28;20323;-54
2022/02/16 14:36:57;;;;;;;;;;;;;;;;;;5091087;28;19916;-52
2022/02/16 14:39:24;;;;;;;;;;;;;;;;;;5090496;28;19969;-57
2022/02/16 14:41:50;;;;;;;;;;;;;;;;;;5088404;28;20011;-51
2022/02/16 14:44:17;;;;;;;;;;;;;;;;;;5091373;28;19908;-53
2022/02/16 14:46:44;;;;;;;;;;;;;;;;;;5090438;28;19974;-54
2022/02/16 14:49:10;;;;;;;;;;;;;;;;;;5090928;28;20397;-56
2022/02/16 14:51:36;;;;;;;;;;;;;;;;;;5087454;28;19999;-48
2022/02/16 14:54:03;;;;;;;;;;;;;;;;;;5089904;28;20017;-51
2022/02/16 14:56:29;;;;;;;;;;;;;;;;;;5093448;28;19908;-54
2022/02/16 14:58:56;;;;;;;;;;;;;;;;;;5090630;28;20314;-55
2022/02/16 15:01:23;;;;;;;;;;;;;;;;;;5087461;28;19919;-58
2022/02/16 15:03:50;;;;;;;;;;;;;;;;;;5089523;28;20020;-58
2022/02/16 15:06:16;;;;;;;;;;;;;;;;;;5092114;28;20412;-50
2022/02/16 15:08:43;;;;;;;;;;;;;;;;;;5093381;28;19995;-50
2022/02/16 15:11:09;;;;;;;;;;;;;;;;;;5093481;28;19969;-49
2022/02/16 15:13:37;;;;;;;;;;;;;;;;;;5093465;28;19915;-55
2022/02/16 15:16:03;;;;;;;;;;;;;;;;;;5092490;28;19924;-50
2022/02/16 15:18:30;;;;;;;;;;;;;;;;;;5093193;28;19912;-49
2022/02/16 15:20:57;;;;;;;;;;;;;;;;;;5093351;28;19908;-53
2022/02/16 15:23:23;;;;;;;;;;;;;;;;;;5093292;28;19943;-49
2022/02/16 15:25:50;;;;;;;;;;;;;;;;;;5093490;28;19929;-56
2022/02/16 15:28:16;;;;;;;;;;;;;;;;;;5093380;28;19927;-49
2022/02/16 15:30:43;;;;;;;;;;;;;;;;;;5092982;28;19912;-56
2022/02/16 15:33:09;;;;;;;;;;;;;;;;;;5092451;28;19908;-53
2022/02/16 15:35:36;;;;;;;;;;;;;;;;;;5093296;28;20293;-49
2022/02/16 15:38:03;;;;;;;;;;;;;;;;;;5093275;28;19908;-54
2022/02/16 15:40:29;;;;;;;;;;;;;;;;;;5093168;28;19907;-51
2022/02/16 15:42:56;;;;;;;;;;;;;;;;;;5093251;28;19909;-54
2022/02/16 15:45:22;;;;;;;;;;;;;;;;;;5092951;28;19916;-50
2022/02/16 15:47:49;;;;;;;;;;;;;;;;;;5093121;28;19931;-47
2022/02/16 15:50:15;;;;;;;;;;;;;;;;;;5093138;28;19914;-58
2022/02/16 15:52:42;;;;;;;;;;;;;;;;;;5092944;28;19916;-58
2022/02/16 15:55:08;;;;;;;;;;;;;;;;;;5093126;28;19920;-57
2022/02/16 15:57:35;;;;;;;;;;;;;;;;;;5093000;28;19913;-54
2022/02/16 16:00:01;;;;;;;;;;;;;;;;;;5074847;28;19915;-56
2022/02/16 16:02:28;;;;;;;;;;;;;;;;;;5092951;28;19994;-57
2022/02/16 16:04:55;;;;;;;;;;;;;;;;;;5093012;28;19953;-60
2022/02/16 16:07:21;;;;;;;;;;;;;;;;;;5092997;28;19947;-55
2022/02/16 16:09:48;;;;;;;;;;;;;;;;;;5093108;28;20329;-56
2022/02/16 16:12:14;;;;;;;;;;;;;;;;;;5092901;28;19908;-59
2022/02/16 16:14:40;;;;;;;;;;;;;;;;;;5092452;28;19952;-55
2022/02/16 16:17:07;;;;;;;;;;;;;;;;;;5092789;28;20285;-53
2022/02/16 16:19:33;;;;;;;;;;;;;;;;;;5092820;28;20350;-57
2022/02/16 16:22:01;;;;;;;;;;;;;;;;;;5092864;28;20385;-57
2022/02/16 16:24:28;;;;;;;;;;;;;;;;;;5093163;28;19905;-57
2022/02/16 16:26:55;;;;;;;;;;;;;;;;;;5094205;28;19912;-58
2022/02/16 16:29:21;;;;;;;;;;;;;;;;;;5096276;28;19970;-57
2022/02/16 16:31:48;;;;;;;;;;;;;;;;;;5096635;28;19908;-57
2022/02/16 16:34:15;;;;;;;;;;;;;;;;;;5096486;28;19923;-56
2022/02/16 16:36:41;;;;;;;;;;;;;;;;;;5096051;28;19908;-57
2022/02/16 16:39:10;;;;;;;;;;;;;;;;;;5096316;28;19916;-57
2022/02/16 16:41:37;;;;;;;;;;;;;;;;;;5078172;28;19908;-58
2022/02/16 16:44:03;;;;;;;;;;;;;;;;;;5095974;28;19931;-55